Map

Track Data

SID SEASON NUMBER BASIN SUBBASIN NAME ISO_TIME NATURE LAT LON WMO_WIND WMO_PRES WMO_AGENCY TRACK_TYPE DIST2LAND LANDFALL IFLAG USA_AGENCY USA_ATCF_ID USA_LAT USA_LON USA_RECORD USA_STATUS USA_WIND USA_PRES USA_SSHS USA_R34_NE USA_R34_SE USA_R34_SW USA_R34_NW USA_R50_NE USA_R50_SE USA_R50_SW USA_R50_NW USA_R64_NE USA_R64_SE USA_R64_SW USA_R64_NW USA_POCI USA_ROCI USA_RMW USA_EYE TOKYO_LAT TOKYO_LON TOKYO_GRADE TOKYO_WIND TOKYO_PRES TOKYO_R50_DIR TOKYO_R50_LONG TOKYO_R50_SHORT TOKYO_R30_DIR TOKYO_R30_LONG TOKYO_R30_SHORT TOKYO_LAND CMA_LAT CMA_LON CMA_CAT CMA_WIND CMA_PRES HKO_LAT HKO_LON HKO_CAT HKO_WIND HKO_PRES NEWDELHI_LAT NEWDELHI_LON NEWDELHI_GRADE NEWDELHI_WIND NEWDELHI_PRES NEWDELHI_CI NEWDELHI_DP NEWDELHI_POCI REUNION_LAT REUNION_LON REUNION_TYPE REUNION_WIND REUNION_PRES REUNION_TNUM REUNION_CI REUNION_RMW REUNION_R34_NE REUNION_R34_SE REUNION_R34_SW REUNION_R34_NW REUNION_R50_NE REUNION_R50_SE REUNION_R50_SW REUNION_R50_NW REUNION_R64_NE REUNION_R64_SE REUNION_R64_SW REUNION_R64_NW BOM_LAT BOM_LON BOM_TYPE BOM_WIND BOM_PRES BOM_TNUM BOM_CI BOM_RMW BOM_R34_NE BOM_R34_SE BOM_R34_SW BOM_R34_NW BOM_R50_NE BOM_R50_SE BOM_R50_SW BOM_R50_NW BOM_R64_NE BOM_R64_SE BOM_R64_SW BOM_R64_NW BOM_ROCI BOM_POCI BOM_EYE BOM_POS_METHOD BOM_PRES_METHOD NADI_LAT NADI_LON NADI_CAT NADI_WIND NADI_PRES WELLINGTON_LAT WELLINGTON_LON WELLINGTON_WIND WELLINGTON_PRES DS824_LAT DS824_LON DS824_STAGE DS824_WIND DS824_PRES TD9636_LAT TD9636_LON TD9636_STAGE TD9636_WIND TD9636_PRES TD9635_LAT TD9635_LON TD9635_WIND TD9635_PRES TD9635_ROCI NEUMANN_LAT NEUMANN_LON NEUMANN_CLASS NEUMANN_WIND NEUMANN_PRES MLC_LAT MLC_LON MLC_CLASS MLC_WIND MLC_PRES USA_GUST BOM_GUST BOM_GUST_PER REUNION_GUST REUNION_GUST_PER USA_SEAHGT USA_SEARAD_NE USA_SEARAD_SE USA_SEARAD_SW USA_SEARAD_NW STORM_SPEED STORM_DIR
2004135N09114 2004 24 WP MM NOT_NAMED 2004-05-14 00:00:00 TS 9.20000 113.800 main 387 387 O_____________ jtwc_wp WP052004 9.20000 113.800 TD 25 1002 -1 6 288
2004135N09114 2004 24 WP MM NOT_NAMED 2004-05-14 03:00:00 TS 9.29755 113.500 main 422 422 P_____________ WP052004 9.29755 113.500 TD 25 1002 -1 7 296
2004135N09114 2004 24 WP MM NOT_NAMED 2004-05-14 06:00:00 TS 9.50000 113.175 main 459 458 O_O___________ jtwc_wp WP052004 9.40000 113.200 TD 25 1002 -1 1008 150 40 9.80000 113.100 1 29 1004 7 293
2004135N09114 2004 24 WP MM NOT_NAMED 2004-05-14 09:00:00 TS 9.58504 112.822 main 458 430 P_P___________ WP052004 9.50747 112.900 TD 25 1002 -1 1008 150 40 9.74016 112.667 1 29 1004 7 282
2004135N09114 2004 24 WP MM NOT_NAMED 2004-05-14 12:00:00 TS 9.64286 112.471 main 430 397 O_O___________ jtwc_wp WP052004 9.60000 112.600 TD 25 1002 -1 1008 150 40 9.70000 112.300 1 29 1004 7 278
2004135N09114 2004 24 WP MM NOT_NAMED 2004-05-14 15:00:00 TS 9.67869 112.168 main 397 370 P_P___________ WP052004 9.66497 112.300 TD 25 1002 -1 1007 140 40 9.69240 112.035 1 29 1004 6 276
2004135N09114 2004 24 WP MM NOT_NAMED 2004-05-14 18:00:00 TS 9.70000 111.900 main 370 342 O_O___________ jtwc_wp WP052004 9.70000 112.000 TD 25 1002 -1 1006 130 40 9.70000 111.800 1 29 1004 6 274
2004135N09114 2004 24 WP MM NOT_NAMED 2004-05-14 21:00:00 TS 9.71501 111.593 main 342 315 P_P___________ WP052004 9.72249 111.693 TD 25 1002 -1 1006 130 40 9.70753 111.493 1 29 1004 6 270
2004135N09114 2004 24 WP MM NOT_NAMED 2004-05-15 00:00:00 TS 9.70000 111.300 main 315 298 O_O___________ jtwc_wp WP052004 9.70000 111.400 TD 25 1002 -1 1006 130 40 9.70000 111.200 1 29 1004 5 261
2004135N09114 2004 24 WP MM NOT_NAMED 2004-05-15 03:00:00 TS 9.62872 111.060 main 305 289 P_P___________ WP052004 9.59996 111.142 TD 25 1002 -1 1006 130 40 9.65747 110.977 1 29 1004 5 251
2004135N09114 2004 24 WP MM NOT_NAMED 2004-05-15 06:00:00 TS 9.55000 110.850 main 289 282 O_O___________ jtwc_wp WP052004 9.50000 110.900 TD 25 1002 -1 1006 130 40 9.60000 110.800 1 29 1004 4 254
2004135N09114 2004 24 WP MM NOT_NAMED 2004-05-15 09:00:00 TS 9.50997 110.654 main 282 268 P_P___________ WP052004 9.47748 110.650 TD 25 1002 -1 1006 130 40 9.54246 110.658 1 29 1004 4 263
2004135N09114 2004 24 WP MM NOT_NAMED 2004-05-15 12:00:00 TS 9.50000 110.450 main 268 250 O_O___________ jtwc_wp WP052004 9.50000 110.400 TD 25 1002 -1 1006 130 40 9.50000 110.500 1 29 1004 4 269
2004135N09114 2004 24 WP MM NOT_NAMED 2004-05-15 15:00:00 TS 9.50249 110.207 main 250 237 P_P___________ WP052004 9.52750 110.142 TD 25 1002 -1 1006 130 40 9.47749 110.272 1 29 1004 5 276
2004135N09114 2004 24 WP MM NOT_NAMED 2004-05-15 18:00:00 TS 9.55000 109.950 main 228 200 O_O___________ jtwc_wp WP052004 9.60000 109.900 TD 25 1002 -1 1006 130 40 9.50000 110.000 1 29 1004 5 290
2004135N09114 2004 24 WP MM NOT_NAMED 2004-05-15 21:00:00 TS 9.68622 109.708 main 200 179 P_P___________ WP052004 9.77244 109.708 TD 27 1001 -1 1006 130 40 9.59999 109.708 1 29 1004 6 297
2004135N09114 2004 24 WP MM NOT_NAMED 2004-05-16 00:00:00 TS 9.80000 109.450 main 179 157 O_O___________ jtwc_wp WP052004 9.90000 109.500 TD 30 1000 -1 1006 130 40 9.70000 109.400 1 29 1004 5 279
2004135N09114 2004 24 WP MM NOT_NAMED 2004-05-16 03:00:00 TS 9.76873 109.161 main 157 142 P_P___________ WP052004 9.82249 109.222 TD 32 998 -1 1006 130 40 9.71497 109.100 1 29 1004 6 262
2004135N09114 2004 24 WP MM NOT_NAMED 2004-05-16 06:00:00 TS 9.71111 108.811 main 142 124 O_OO__________ jtwc_wp WP052004 9.70000 108.900 TS 35 997 0 30 60 60 30 1006 130 40 9.70000 108.800 1 29 1004 9.80000 108.500 TD 25 1000 7 265
2004135N09114 2004 24 WP MM NOT_NAMED 2004-05-16 09:00:00 TS 9.71106 108.436 main 120 114 P_PP__________ WP052004 9.66259 108.460 TS 32 998 -1 1006 130 40 9.73005 108.448 1 29 1004 9.77002 108.362 TD 25 1000 6 269
2004135N09114 2004 24 WP MM NOT_NAMED 2004-05-16 12:00:00 TS 9.70000 108.227 main 114 114 O_OO__________ jtwc_wp WP052004 9.70000 108.200 TD 30 1000 -1 1006 130 40 9.70000 108.200 1 29 1004 9.70000 108.300 TD 25 1000 2 235
2004135N09114 2004 24 WP MM NOT_NAMED 2004-05-16 15:00:00 TS 9.62248 108.308 main 127 127 P_PP__________ WP052004 9.82759 108.425 TD 30 1000 -1 1006 130 40 9.46236 108.138 1 29 1004 9.57750 108.363 TD 25 1000 3 107
2004135N09114 2004 24 WP MM NOT_NAMED 2004-05-16 18:00:00 TS 9.60909 108.536 main 134 129 O_OO__________ jtwc_wp WP052004 10.0000 108.800 TD 30 1000 -1 1006 130 40 9.30000 108.300 1 29 1004 9.50000 108.500 TD 25 1000 5 72
2004135N09114 2004 24 WP MM NOT_NAMED 2004-05-16 21:00:00 TS 9.78556 108.807 main 133 126 P_PP__________ WP052004 10.1950 108.972 TD 30 1000 -1 1006 125 40 9.49020 108.720 1 29 1004 9.55751 108.650 TD 25 1000 7 52
2004135N09114 2004 24 WP MM NOT_NAMED 2004-05-17 00:00:00 TS 10.0375 109.100 main 133 125 O_OO__________ jtwc_wp WP052004 10.3000 109.100 TD 30 1000 -1 1006 120 40 9.80000 109.200 1 29 1004 9.70000 108.800 TD 25 1000 6 57
2004135N09114 2004 24 WP MM NOT_NAMED 2004-05-17 03:00:00 TS 10.1208 109.332 main 139 139 P_P___________ WP052004 10.1650 109.243 TD 27 1001 -1 1007 110 40 10.0324 109.510 1 26 1004 TD 4 90
2004135N09114 2004 24 WP MM NOT_NAMED 2004-05-17 06:00:00 TS 10.0400 109.460 main 160 160 O_O___________ jtwc_wp WP052004 10.0000 109.400 TD 25 1002 -1 1008 100 40 10.2000 109.700 1 23 1004 3 112
2004135N09114 2004 24 WP MM NOT_NAMED 2004-05-17 09:00:00 TS 10.0125 109.600 main 166 164 P_____________ WP052004 10.0125 109.600 TD 25 1002 -1 1 3 80
2004135N09114 2004 24 WP MM NOT_NAMED 2004-05-17 12:00:00 TS 10.1000 109.800 main 169 166 O_____________ jtwc_wp WP052004 10.1000 109.800 TD 25 1002 -1 4 63
2004135N09114 2004 24 WP MM NOT_NAMED 2004-05-17 15:00:00 TS 10.1925 109.958 main 173 164 P_____________ WP052004 10.1925 109.958 TD 25 1002 -1 4 56
2004135N09114 2004 24 WP MM NOT_NAMED 2004-05-17 18:00:00 TS 10.3000 110.100 main 172 172 O_____________ jtwc_wp WP052004 10.3000 110.100 TD 25 1002 -1 4 54
2004135N09114 2004 24 WP MM NOT_NAMED 2004-05-17 21:00:00 TS 10.4000 110.250 main 180 174 P_____________ WP052004 10.4000 110.250 TD 25 1002 -1 4 56
2004135N09114 2004 24 WP MM NOT_NAMED 2004-05-18 00:00:00 TS 10.5000 110.400 main 183 183 O_____________ jtwc_wp WP052004 10.5000 110.400 TD 25 1002 -1 4 57
2004135N09114 2004 24 WP MM NOT_NAMED 2004-05-18 03:00:00 TS 10.5925 110.558 main 196 189 P_____________ WP052004 10.5925 110.558 TD 25 1002 -1 4 56
2004135N09114 2004 24 WP MM NOT_NAMED 2004-05-18 06:00:00 TS 10.7000 110.700 main 198 192 O_____________ jtwc_wp WP052004 10.7000 110.700 TD 25 1002 -1 4 45
2004135N09114 2004 24 WP MM NOT_NAMED 2004-05-18 09:00:00 TS 10.8400 110.810 main 201 196 P_____________ WP052004 10.8400 110.810 TD 25 1002 -1 4 33
2004135N09114 2004 24 WP MM NOT_NAMED 2004-05-18 12:00:00 TS 11.0000 110.900 main 201 O_____________ jtwc_wp WP052004 11.0000 110.900 TD 25 1002 -1 4 28

Digital Typhoon Data and Search

About IBTrACS Database

This database is a web-friendly format of International Best Track Archive for Climate Stewardship (IBTrACS), a global best track data archive curated by NOAA dating back to 1842.

Updated: 2021-12-03